Spring River (Missouri), Waco (07186000)

StateMissouriLatestPoor (229 cfs)
RiverSpring RiverRatingObservedEstimated
Updated2020-08-11 18:30 (1 hour ago)Flood - The river is flooding. Obstacles can be treacherous or deadly. The river should be avoided at this stage for casual trips and definitely for the inexperienced. Trips should be attempted only with protective gear and equipment.Flood(none)4293
Discharge229 cfs (median: 145 cfs)High - The river is high and potentially dangerous, especially for the young and / or inexperienced. Normal stream obstacles are sometimes difficult to navigate. Extended distances can be attempted, but canoe travel may not be advisable.High(none)573
Height1.98 feetGood - Conditions are ideal for a canoe or kayak. Boats typically will drag on fewer than one-quarter of riffles, if at all, and portages are unnecessary or rare. Normal float lengths can be attempted without a problem.Good(none)523
TrendFalling (falling over 24 hours)Low - River is low but can still be floated. Some riffles are okay but most come with significant dragging and might need a portage. Float lengths should be reduced to accommodate low flow, dragging, and portages.Low(none)263
USGSExternal icon USGS Site (External icon Google Maps)Poor - River is too low to float comfortably. Most or all riffles will drag or must be portaged and some obstacles (such as slick shelf rock) cause undue problems. Avoid the river at this stage for casual paddling trips.Poor(none)49

Trending Data

Plot Image

Trips for Spring River (Missouri), Waco (07186000)

DateStartEndDistanceConditionDischargeHeightFishingDetails

A total of 0 rows are displayed.

Condition Descriptions

Fishing Conditions

Fish Species

Notes

Classic Trip List

The classic River Trips application is still available for use. It is updated with the new system using a data retrofit. It is no longer maintained. The original River Trips application is no longer updated (as of 1 Dec 2016) but can be checked for errors or for the condition of the data before it was converted to the new system.

Gauge Data Table

ObservationHeightDischargeMaximum
Discharge
Minimum
Discharge
Mean
Discharge
P05P10P20P25P50
(Median)
P75P80P90P95
2020-08-11 18:30 1.98 229 5450 (1924) 8 (1954) 360 33 51 67 80 145 266 306 480 1980
2020-08-11 17:30 1.99 233 5450 (1924) 8 (1954) 360 33 51 67 80 145 266 306 480 1980
2020-08-11 16:30 1.99 233 5450 (1924) 8 (1954) 360 33 51 67 80 145 266 306 480 1980
2020-08-11 15:30 2.00 237 5450 (1924) 8 (1954) 360 33 51 67 80 145 266 306 480 1980
2020-08-11 14:30 2.00 237 5450 (1924) 8 (1954) 360 33 51 67 80 145 266 306 480 1980
2020-08-11 13:30 2.00 237 5450 (1924) 8 (1954) 360 33 51 67 80 145 266 306 480 1980
2020-08-11 12:30 2.00 237 5450 (1924) 8 (1954) 360 33 51 67 80 145 266 306 480 1980
2020-08-11 11:30 2.01 240 5450 (1924) 8 (1954) 360 33 51 67 80 145 266 306 480 1980
2020-08-11 10:30 2.01 240 5450 (1924) 8 (1954) 360 33 51 67 80 145 266 306 480 1980
2020-08-11 09:30 2.01 240 5450 (1924) 8 (1954) 360 33 51 67 80 145 266 306 480 1980
2020-08-11 08:30 2.01 240 5450 (1924) 8 (1954) 360 33 51 67 80 145 266 306 480 1980
2020-08-11 07:30 2.02 244 5450 (1924) 8 (1954) 360 33 51 67 80 145 266 306 480 1980
2020-08-11 06:30 2.02 244 5450 (1924) 8 (1954) 360 33 51 67 80 145 266 306 480 1980
2020-08-11 05:30 2.03 248 5450 (1924) 8 (1954) 360 33 51 67 80 145 266 306 480 1980
2020-08-11 04:30 2.03 248 5450 (1924) 8 (1954) 360 33 51 67 80 145 266 306 480 1980
2020-08-11 03:30 2.03 248 5450 (1924) 8 (1954) 360 33 51 67 80 145 266 306 480 1980
2020-08-11 02:30 2.04 252 5450 (1924) 8 (1954) 360 33 51 67 80 145 266 306 480 1980
2020-08-11 01:30 2.05 255 5450 (1924) 8 (1954) 360 33 51 67 80 145 266 306 480 1980
2020-08-11 00:30 2.06 259 5450 (1924) 8 (1954) 360 33 51 67 80 145 266 306 480 1980
2020-08-10 23:30 2.07 263 9900 (1927) 8 (1954) 370 28 44 69 83 152 252 315 571 1060
2020-08-10 22:30 2.07 263 9900 (1927) 8 (1954) 370 28 44 69 83 152 252 315 571 1060
2020-08-10 21:30 2.08 267 9900 (1927) 8 (1954) 370 28 44 69 83 152 252 315 571 1060
2020-08-10 20:30 2.09 271 9900 (1927) 8 (1954) 370 28 44 69 83 152 252 315 571 1060
2020-08-10 19:30 2.09 271 9900 (1927) 8 (1954) 370 28 44 69 83 152 252 315 571 1060
2020-08-10 18:30 2.10 275 9900 (1927) 8 (1954) 370 28 44 69 83 152 252 315 571 1060
2020-08-10 17:30 2.11 278 9900 (1927) 8 (1954) 370 28 44 69 83 152 252 315 571 1060
2020-08-10 16:30 2.12 282 9900 (1927) 8 (1954) 370 28 44 69 83 152 252 315 571 1060
2020-08-10 15:30 2.13 286 9900 (1927) 8 (1954) 370 28 44 69 83 152 252 315 571 1060
2020-08-10 14:30 2.14 290 9900 (1927) 8 (1954) 370 28 44 69 83 152 252 315 571 1060
2020-08-10 13:30 2.15 294 9900 (1927) 8 (1954) 370 28 44 69 83 152 252 315 571 1060
2020-08-10 12:30 2.15 294 9900 (1927) 8 (1954) 370 28 44 69 83 152 252 315 571 1060
2020-08-10 11:30 2.17 303 9900 (1927) 8 (1954) 370 28 44 69 83 152 252 315 571 1060
2020-08-10 10:30 2.18 307 9900 (1927) 8 (1954) 370 28 44 69 83 152 252 315 571 1060
2020-08-10 09:30 2.19 311 9900 (1927) 8 (1954) 370 28 44 69 83 152 252 315 571 1060
2020-08-10 08:30 2.19 311 9900 (1927) 8 (1954) 370 28 44 69 83 152 252 315 571 1060
2020-08-10 07:30 2.21 319 9900 (1927) 8 (1954) 370 28 44 69 83 152 252 315 571 1060
2020-08-10 06:30 2.20 315 9900 (1927) 8 (1954) 370 28 44 69 83 152 252 315 571 1060
2020-08-10 05:30 2.22 324 9900 (1927) 8 (1954) 370 28 44 69 83 152 252 315 571 1060
2020-08-10 04:30 2.24 332 9900 (1927) 8 (1954) 370 28 44 69 83 152 252 315 571 1060
2020-08-10 03:30 2.24 332 9900 (1927) 8 (1954) 370 28 44 69 83 152 252 315 571 1060
2020-08-10 02:30 2.25 336 9900 (1927) 8 (1954) 370 28 44 69 83 152 252 315 571 1060
2020-08-10 01:30 2.28 350 9900 (1927) 8 (1954) 370 28 44 69 83 152 252 315 571 1060
2020-08-10 00:30 2.28 350 9900 (1927) 8 (1954) 370 28 44 69 83 152 252 315 571 1060

A total of 43 rows are displayed for years 1924 through 2019.